Time;durP1;ratioP1;P1;durP2;ratioP2;P2;SDS_P1;SDS_P2;PMS_P1;PMS_P2;Temp;Humidity;BMP_temperature;BMP_pressure;BME280_temperature;BME280_humidity;BME280_pressure;Samples;Min_cycle;Max_cycle;Signal;HPM_P1;HPM_P2
2023/08/14 00:05:18;;;;;;;5.13;4.43;;;;;;;21.89;70.25;100308.72;30965339;28;98153;-73
2023/08/14 00:20:19;;;;;;;5.13;4.10;;;;;;;21.54;70.85;100317.00;30963179;28;97265;-73
2023/08/14 00:35:19;;;;;;;4.47;3.70;;;;;;;21.19;71.51;100343.06;30961838;28;101865;-73
2023/08/14 00:50:20;;;;;;;5.90;4.07;;;;;;;20.84;72.12;100324.13;30959912;28;98896;-74
2023/08/14 01:05:22;;;;;;;4.97;4.17;;;;;;;20.90;72.86;100336.72;30959931;28;97336;-73
2023/08/14 01:20:24;;;;;;;6.33;4.13;;;;;;;20.93;72.77;100344.38;30957917;28;99197;-74
2023/08/14 01:35:30;;;;;;;6.40;4.13;;;;;;;20.59;73.09;100338.66;30957759;28;97313;-75
2023/08/14 01:50:32;;;;;;;6.40;4.93;;;;;;;20.38;73.72;100342.72;30956830;28;96722;-73
2023/08/14 02:05:32;;;;;;;7.27;4.60;;;;;;;20.14;74.44;100342.66;30971318;28;97260;-75
2023/08/14 02:20:32;;;;;;;22.40;6.43;;;;;;;20.16;74.88;100328.91;30974879;28;97433;-74
2023/08/14 02:35:34;;;;;;;8.10;5.10;;;;;;;20.08;75.24;100316.53;30972219;28;112906;-74
2023/08/14 02:50:34;;;;;;;10.57;4.57;;;;;;;20.07;75.44;100312.19;30971185;28;97186;-74
2023/08/14 03:05:35;;;;;;;11.27;5.80;;;;;;;19.92;75.58;100301.81;30968828;28;96965;-73
2023/08/14 03:20:35;;;;;;;7.43;5.70;;;;;;;19.84;76.07;100308.34;30967735;28;108446;-75
2023/08/14 03:35:36;;;;;;;9.87;5.00;;;;;;;19.81;76.37;100333.13;30966820;28;97558;-76
2023/08/14 03:50:36;;;;;;;7.23;4.77;;;;;;;19.82;76.36;100339.34;30963756;28;96766;-75
2023/08/14 04:05:39;;;;;;;6.77;4.27;;;;;;;19.92;76.68;100335.06;30962967;28;101502;-74
2023/08/14 04:20:39;;;;;;;10.33;5.00;;;;;;;20.24;76.73;100342.94;30958474;28;97192;-74
2023/08/14 04:35:40;;;;;;;8.97;4.07;;;;;;;20.72;76.01;100348.47;30959831;28;97724;-74
2023/08/14 04:50:40;;;;;;;6.17;4.00;;;;;;;21.02;75.41;100369.22;30958827;28;96731;-74
2023/08/14 05:05:40;;;;;;;4.38;2.63;;;;;;;21.95;74.77;100363.88;30956407;28;97495;-75
2023/08/14 05:20:48;;;;;;;4.70;2.90;;;;;;;22.28;73.19;100378.59;30946943;28;97951;-75
2023/08/14 05:35:49;;;;;;;5.37;2.57;;;;;;;22.74;72.41;100389.50;30960821;28;97043;-73
2023/08/14 05:50:52;;;;;;;6.43;4.13;;;;;;;22.54;71.33;100400.81;30964790;28;96948;-74
2023/08/14 06:05:53;;;;;;;6.73;3.60;;;;;;;22.70;72.25;100399.19;30844276;28;99256;-72
2023/08/14 06:20:53;;;;;;;4.32;3.33;;;;;;;23.64;72.10;100414.75;30603172;28;98120;-76
2023/08/14 06:35:55;;;;;;;5.13;3.40;;;;;;;24.54;69.34;100419.06;30590113;28;97254;-70
2023/08/14 06:50:57;;;;;;;6.40;3.07;;;;;;;25.57;67.86;100405.41;30594962;28;98345;-70
2023/08/14 07:05:58;;;;;;;4.17;2.90;;;;;;;27.06;64.14;100427.59;30604471;28;97133;-70
2023/08/14 07:20:58;;;;;;;4.35;2.20;;;;;;;27.93;59.54;100437.53;30604452;28;104081;-72
2023/08/14 07:35:59;;;;;;;3.90;2.80;;;;;;;29.02;55.29;100429.47;30608218;28;96964;-73
2023/08/14 07:50:59;;;;;;;4.22;2.22;;;;;;;30.87;51.38;100420.81;30615484;28;97060;-78
2023/08/14 08:06:00;;;;;;;4.35;2.20;;;;;;;32.17;45.13;100423.56;30607404;28;98313;-75
2023/08/14 08:21:00;;;;;;;3.92;2.53;;;;;;;32.15;42.33;100427.72;30598477;28;96897;-72
2023/08/14 08:36:03;;;;;;;4.60;2.40;;;;;;;33.18;40.65;100425.25;30579269;28;97450;-71
2023/08/14 08:51:04;;;;;;;3.70;1.85;;;;;;;34.12;38.09;100413.19;30592996;28;97256;-70
2023/08/14 09:06:04;;;;;;;6.00;2.07;;;;;;;34.99;36.92;100404.84;30596320;28;97112;-78
2023/08/14 09:21:04;;;;;;;2.97;1.92;;;;;;;36.15;35.20;100398.41;30622666;28;101427;-73
2023/08/14 09:36:06;;;;;;;4.43;2.00;;;;;;;42.83;25.85;100401.91;30619160;28;96771;-74
2023/08/14 09:51:13;;;;;;;2.77;1.90;;;;;;;40.86;27.54;100397.97;30611043;28;97170;-71
2023/08/14 10:06:13;;;;;;;3.17;2.00;;;;;;;38.92;28.58;100389.75;30614776;28;97368;-72
2023/08/14 10:21:15;;;;;;;4.22;2.00;;;;;;;38.61;29.40;100380.19;30605269;28;98496;-66
2023/08/14 10:36:19;;;;;;;4.07;1.90;;;;;;;37.25;30.21;100384.06;30605638;28;97466;-77
2023/08/14 10:51:21;;;;;;;4.70;2.50;;;;;;;36.94;29.82;100365.19;30602847;28;97369;-75
2023/08/14 11:06:26;;;;;;;4.53;2.30;;;;;;;36.77;30.99;100355.06;30603025;28;96893;-72
2023/08/14 11:21:26;;;;;;;4.97;3.77;;;;;;;35.17;30.89;100361.31;30586469;28;97453;-71
2023/08/14 11:36:27;;;;;;;5.55;2.33;;;;;;;34.90;30.41;100363.38;30597973;28;96954;-70
2023/08/14 11:51:29;;;;;;;5.43;2.70;;;;;;;36.30;29.33;100360.91;30595761;28;96718;-70
2023/08/14 12:06:30;;;;;;;4.73;2.60;;;;;;;35.91;30.47;100349.97;30594965;28;97665;-69
2023/08/14 12:21:30;;;;;;;5.40;2.77;;;;;;;35.62;31.94;100326.69;30591608;28;97503;-69
2023/08/14 12:36:30;;;;;;;4.30;2.55;;;;;;;35.29;31.89;100324.59;30687957;28;107505;-76
2023/08/14 12:51:31;;;;;;;2.92;2.20;;;;;;;35.08;31.96;100332.88;30702048;28;97672;-74
2023/08/14 13:06:32;;;;;;;2.67;2.03;;;;;;;34.28;33.06;100302.94;30589345;28;96872;-72
2023/08/14 13:21:32;;;;;;;5.17;3.10;;;;;;;33.80;33.88;100305.59;30588337;28;97477;-80
2023/08/14 13:36:32;;;;;;;3.47;2.45;;;;;;;33.46;35.02;100275.97;30585776;28;98073;-70
2023/08/14 13:51:33;;;;;;;4.35;2.50;;;;;;;33.50;33.96;100271.41;30586175;28;112611;-71
2023/08/14 14:06:33;;;;;;;2.88;2.10;;;;;;;33.13;34.59;100262.56;30606567;28;96922;-72
2023/08/14 14:21:33;;;;;;;4.47;2.28;;;;;;;33.15;32.85;100230.75;30606338;28;99583;-71
2023/08/14 14:36:34;;;;;;;4.85;2.20;;;;;;;32.93;33.81;100212.38;30602592;28;98330;-67
2023/08/14 14:51:35;;;;;;;4.00;2.40;;;;;;;32.92;33.73;100215.41;30597302;28;97504;-67
2023/08/14 15:06:35;;;;;;;4.20;2.50;;;;;;;32.86;33.72;100198.22;30595221;28;96923;-72
2023/08/14 15:21:35;;;;;;;7.05;2.15;;;;;;;32.66;34.75;100229.94;30590199;28;97454;-71
2023/08/14 15:36:36;;;;;;;4.57;2.80;;;;;;;32.51;34.74;100250.47;30597313;28;97136;-71
2023/08/14 15:51:36;;;;;;;5.10;2.53;;;;;;;32.30;35.73;100239.16;30593468;28;97276;-71
2023/08/14 16:06:37;;;;;;;3.67;2.70;;;;;;;31.73;37.36;100243.28;30593120;28;101483;-72
2023/08/14 16:21:37;;;;;;;7.20;3.53;;;;;;;31.32;37.31;100234.00;30599332;28;96876;-73
2023/08/14 16:36:37;;;;;;;10.98;3.70;;;;;;;31.05;37.34;100243.91;30599169;28;110229;-73
2023/08/14 16:51:37;;;;;;;8.40;3.13;;;;;;;30.71;37.71;100245.13;30598844;28;107050;-73
2023/08/14 17:06:38;;;;;;;4.60;3.08;;;;;;;30.56;38.56;100250.88;30603951;28;96702;-77
2023/08/14 17:21:38;;;;;;;9.00;3.50;;;;;;;30.08;39.06;100251.16;30591007;28;112286;-73
2023/08/14 17:36:41;;;;;;;5.80;3.90;;;;;;;29.40;39.75;100264.22;30669127;28;108603;-78
2023/08/14 17:51:42;;;;;;;3.47;2.30;;;;;;;28.88;40.73;100270.28;30608193;28;97424;-69
2023/08/14 18:06:42;;;;;;;4.55;2.75;;;;;;;28.26;42.42;100259.91;30620933;28;98504;-72
2023/08/14 18:21:42;;;;;;;6.38;3.70;;;;;;;28.01;42.83;100264.47;30554589;28;98368;-66
2023/08/14 18:36:43;;;;;;;6.25;3.05;;;;;;;27.49;44.18;100263.97;30602550;28;107907;-66
2023/08/14 18:51:43;;;;;;;9.25;3.30;;;;;;;26.92;45.80;100277.00;30590081;28;110094;-67
2023/08/14 19:06:43;;;;;;;9.52;5.50;;;;;;;26.86;46.55;100294.53;30598430;28;101652;-67
2023/08/14 19:21:44;;;;;;;5.88;3.58;;;;;;;26.69;46.98;100322.94;30563748;28;97851;-67
2023/08/14 19:36:44;;;;;;;9.07;3.92;;;;;;;26.39;47.23;100334.69;30474756;28;97276;-67
2023/08/14 19:51:44;;;;;;;11.45;4.50;;;;;;;25.78;48.42;100338.94;30580302;28;104450;-67
2023/08/14 20:06:45;;;;;;;8.32;4.60;;;;;;;25.36;49.11;100333.56;30591127;28;97530;-67
2023/08/14 20:21:45;;;;;;;7.28;4.60;;;;;;;24.82;50.78;100340.88;30584076;28;98584;-66
2023/08/14 20:36:46;;;;;;;9.30;4.82;;;;;;;24.55;51.76;100339.00;30570114;28;113653;-69
2023/08/14 20:51:46;;;;;;;8.15;4.80;;;;;;;24.42;52.52;100347.63;30512764;28;98546;-70
2023/08/14 21:06:47;;;;;;;12.48;5.30;;;;;;;24.27;53.03;100338.22;30484644;28;97478;-70
2023/08/14 21:21:47;;;;;;;13.75;5.68;;;;;;;24.23;53.32;100326.19;30492781;28;104033;-70
2023/08/14 21:36:47;;;;;;;8.68;5.25;;;;;;;23.74;54.19;100324.34;30494993;28;97110;-70
2023/08/14 21:51:47;;;;;;;10.52;4.70;;;;;;;23.46;55.65;100311.75;30497123;28;108520;-70
2023/08/14 22:06:48;;;;;;;10.02;4.75;;;;;;;23.05;56.04;100311.19;30612127;28;97172;-70
2023/08/14 22:21:48;;;;;;;9.40;4.50;;;;;;;22.73;57.15;100306.38;30610655;28;97183;-70
2023/08/14 22:36:49;;;;;;;7.60;4.28;;;;;;;22.53;57.66;100315.84;30609368;28;103709;-70
2023/08/14 22:51:49;;;;;;;;;;;;;;;22.09;58.11;100315.59;30608367;28;101304;-70
2023/08/14 23:06:49;;;;;;;10.10;5.77;;;;;;;21.61;59.48;100314.97;30607618;28;97963;-70
2023/08/14 23:21:49;;;;;;;5.63;5.00;;;;;;;21.24;60.63;100313.38;30604078;28;103604;-70
2023/08/14 23:36:50;;;;;;;9.77;5.43;;;;;;;20.88;61.37;100304.44;30602896;28;96903;-69
2023/08/14 23:51:50;;;;;;;10.53;5.50;;;;;;;20.44;62.85;100309.34;30603368;28;97157;-70
